Time,TemperatureF,DewpointF,PressureIn,WindDirection,WindDirectionDegrees,WindSpeedMPH,WindSpeedGustMPH,Humidity,HourlyPrecipIn,Conditions,Clouds,dailyrainin,SoftwareType,DateUTC
2013-03-09 00:00:00,57.7,38.7,29.94,SE,142,7.0,11.0,49,0.00,,---,0.00,VWS V14.00,2013-03-09 06:00:00,
2013-03-09 00:05:00,57.8,38.8,29.94,SE,133,14.0,18.0,49,0.00,,---,0.00,VWS V14.00,2013-03-09 06:05:00,
2013-03-09 00:10:00,58.1,38.5,29.94,SE,146,9.0,13.0,48,0.00,,---,0.00,VWS V14.00,2013-03-09 06:10:00,
2013-03-09 00:15:00,58.3,38.2,29.94,SE,135,11.0,14.0,47,0.00,,---,0.00,VWS V14.00,2013-03-09 06:15:00,
2013-03-09 00:20:00,58.5,38.4,29.94,SSE,147,10.0,13.0,47,0.00,,---,0.00,VWS V14.00,2013-03-09 06:20:00,
2013-03-09 00:25:00,58.5,38.4,29.93,SE,134,11.0,16.0,47,0.00,,---,0.00,VWS V14.00,2013-03-09 06:25:00,
2013-03-09 00:30:00,58.6,38.5,29.93,SE,136,8.0,15.0,47,0.00,,---,0.00,VWS V14.00,2013-03-09 06:30:00,
2013-03-09 00:35:00,58.7,38.0,29.92,ESE,121,11.0,16.0,46,0.00,,---,0.00,VWS V14.00,2013-03-09 06:35:00,
2013-03-09 00:40:00,58.7,38.0,29.93,SE,143,10.0,11.0,46,0.00,,---,0.00,VWS V14.00,2013-03-09 06:40:00,
2013-03-09 00:45:00,58.7,38.0,29.93,SE,142,10.0,15.0,46,0.00,,---,0.00,VWS V14.00,2013-03-09 06:45:00,
2013-03-09 00:50:00,58.6,38.5,29.93,SE,142,9.0,17.0,47,0.00,,---,0.00,VWS V14.00,2013-03-09 06:50:00,
2013-03-09 00:55:00,58.6,38.5,29.92,SE,137,11.0,11.0,47,0.00,,---,0.00,VWS V14.00,2013-03-09 06:55:00,
2013-03-09 01:00:00,58.5,38.4,29.92,SE,136,12.0,12.0,47,0.00,,---,0.00,VWS V14.00,2013-03-09 07:00:00,
2013-03-09 01:05:00,58.4,38.3,29.92,SE,142,13.0,18.0,47,0.00,,---,0.00,VWS V14.00,2013-03-09 07:05:00,
2013-03-09 01:10:00,58.3,38.2,29.92,SE,138,7.0,15.0,47,0.00,,---,0.00,VWS V14.00,2013-03-09 07:10:00,
2013-03-09 01:15:00,58.2,38.6,29.92,SE,136,9.0,11.0,48,0.00,,---,0.00,VWS V14.00,2013-03-09 07:15:00,
2013-03-09 01:20:00,58.2,38.6,29.92,SE,136,12.0,15.0,48,0.00,,---,0.00,VWS V14.00,2013-03-09 07:20:00,
2013-03-09 01:25:00,58.2,38.6,29.92,SE,135,12.0,12.0,48,0.00,,---,0.00,VWS V14.00,2013-03-09 07:25:00,
2013-03-09 01:30:00,58.2,38.6,29.92,SE,139,12.0,18.0,48,0.00,,---,0.00,VWS V14.00,2013-03-09 07:30:00,
2013-03-09 01:35:00,58.2,38.6,29.92,SE,135,6.0,13.0,48,0.00,,---,0.00,VWS V14.00,2013-03-09 07:35:00,
2013-03-09 01:40:00,58.2,38.6,29.92,SE,140,7.0,13.0,48,0.00,,---,0.00,VWS V14.00,2013-03-09 07:40:00,
2013-03-09 01:45:00,58.2,38.6,29.92,SE,144,10.0,13.0,48,0.00,,---,0.00,VWS V14.00,2013-03-09 07:45:00,
2013-03-09 01:50:00,58.2,38.6,29.92,SE,145,6.0,6.0,48,0.00,,---,0.00,VWS V14.00,2013-03-09 07:50:00,
2013-03-09 01:55:00,58.2,38.6,29.92,SE,136,6.0,11.0,48,0.00,,---,0.00,VWS V14.00,2013-03-09 07:55:00,
2013-03-09 02:00:00,58.1,39.1,29.92,SE,142,10.0,10.0,49,0.00,,---,0.00,VWS V14.00,2013-03-09 08:00:00,
2013-03-09 02:05:00,58.0,39.0,29.92,SSE,160,6.0,10.0,49,0.00,,---,0.00,VWS V14.00,2013-03-09 08:05:00,
2013-03-09 02:10:00,58.0,39.0,29.91,SE,142,5.0,7.0,49,0.00,,---,0.00,VWS V14.00,2013-03-09 08:10:00,
2013-03-09 02:15:00,57.9,38.9,29.91,SE,144,4.0,6.0,49,0.00,,---,0.00,VWS V14.00,2013-03-09 08:15:00,
2013-03-09 02:20:00,57.9,38.9,29.91,SE,144,4.0,6.0,49,0.00,,---,0.00,VWS V14.00,2013-03-09 08:20:00,
2013-03-09 02:25:00,57.8,38.8,29.90,SE,141,7.0,7.0,49,0.00,,---,0.00,VWS V14.00,2013-03-09 08:25:00,
2013-03-09 02:30:00,57.8,39.3,29.90,SE,138,5.0,9.0,50,0.00,,---,0.00,VWS V14.00,2013-03-09 08:30:00,
2013-03-09 02:35:00,57.7,39.2,29.90,SE,138,7.0,7.0,50,0.00,,---,0.00,VWS V14.00,2013-03-09 08:35:00,
2013-03-09 02:40:00,57.7,39.2,29.90,SE,138,6.0,7.0,50,0.00,,---,0.00,VWS V14.00,2013-03-09 08:40:00,
2013-03-09 02:45:00,57.6,39.1,29.89,SE,138,7.0,8.0,50,0.00,,---,0.00,VWS V14.00,2013-03-09 08:45:00,
2013-03-09 02:50:00,57.6,39.6,29.89,SE,139,4.0,5.0,51,0.00,,---,0.00,VWS V14.00,2013-03-09 08:50:00,
2013-03-09 02:55:00,57.5,39.5,29.89,SE,138,4.0,5.0,51,0.00,,---,0.00,VWS V14.00,2013-03-09 08:55:00,
2013-03-09 03:00:00,57.5,39.5,29.89,SE,138,3.0,5.0,51,0.00,,---,0.00,VWS V14.00,2013-03-09 09:00:00,
2013-03-09 03:05:00,57.4,39.4,29.89,SE,138,3.0,5.0,51,0.00,,---,0.00,VWS V14.00,2013-03-09 09:05:00,
2013-03-09 03:10:00,57.4,39.9,29.88,SE,138,5.0,5.0,52,0.00,,---,0.00,VWS V14.00,2013-03-09 09:10:00,
2013-03-09 03:15:00,57.4,39.9,29.88,SE,138,4.0,5.0,52,0.00,,---,0.00,VWS V14.00,2013-03-09 09:15:00,
2013-03-09 03:20:00,57.3,39.8,29.88,SE,138,4.0,6.0,52,0.00,,---,0.00,VWS V14.00,2013-03-09 09:20:00,
2013-03-09 03:25:00,57.3,39.8,29.88,SE,138,5.0,6.0,52,0.00,,---,0.00,VWS V14.00,2013-03-09 09:25:00,
2013-03-09 03:30:00,57.3,39.8,29.88,SE,138,4.0,6.0,52,0.00,,---,0.00,VWS V14.00,2013-03-09 09:30:00,
2013-03-09 03:35:00,57.3,39.8,29.88,SE,137,6.0,6.0,52,0.00,,---,0.00,VWS V14.00,2013-03-09 09:35:00,
2013-03-09 03:40:00,57.4,40.4,29.88,SE,133,5.0,6.0,53,0.00,,---,0.00,VWS V14.00,2013-03-09 09:40:00,
2013-03-09 03:45:00,57.5,40.5,29.88,SE,133,7.0,7.0,53,0.00,,---,0.00,VWS V14.00,2013-03-09 09:45:00,
2013-03-09 03:50:00,57.5,40.5,29.88,SE,134,6.0,9.0,53,0.00,,---,0.00,VWS V14.00,2013-03-09 09:50:00,
2013-03-09 03:55:00,57.6,40.6,29.88,SE,135,4.0,9.0,53,0.00,,---,0.00,VWS V14.00,2013-03-09 09:55:00,
2013-03-09 04:00:00,57.6,41.1,29.88,SE,134,4.0,5.0,54,0.00,,---,0.00,VWS V14.00,2013-03-09 10:00:00,
2013-03-09 04:05:00,57.6,41.1,29.88,SE,134,9.0,9.0,54,0.00,,---,0.00,VWS V14.00,2013-03-09 10:05:00,
2013-03-09 04:10:00,57.7,41.7,29.88,SE,134,3.0,5.0,55,0.00,,---,0.00,VWS V14.00,2013-03-09 10:10:00,
2013-03-09 04:15:00,57.7,41.7,29.88,SE,134,6.0,7.0,55,0.00,,---,0.00,VWS V14.00,2013-03-09 10:15:00,
2013-03-09 04:20:00,57.7,42.1,29.88,SE,136,5.0,7.0,56,0.00,,---,0.00,VWS V14.00,2013-03-09 10:20:00,
2013-03-09 04:25:00,57.8,42.7,29.88,SE,136,7.0,12.0,57,0.00,,---,0.00,VWS V14.00,2013-03-09 10:25:00,
2013-03-09 04:30:00,58.0,42.9,29.87,SE,145,6.0,8.0,57,0.00,,---,0.00,VWS V14.00,2013-03-09 10:30:00,
2013-03-09 04:35:00,58.2,43.5,29.86,SE,138,10.0,12.0,58,0.00,,---,0.00,VWS V14.00,2013-03-09 10:35:00,
2013-03-09 04:40:00,58.4,44.1,29.86,SE,138,10.0,17.0,59,0.00,,---,0.00,VWS V14.00,2013-03-09 10:40:00,
2013-03-09 04:45:00,58.7,44.4,29.86,SE,144,13.0,14.0,59,0.00,,---,0.00,VWS V14.00,2013-03-09 10:45:00,
2013-03-09 04:50:00,59.0,45.2,29.86,SE,145,10.0,15.0,60,0.00,,---,0.00,VWS V14.00,2013-03-09 10:50:00,
2013-03-09 04:55:00,59.0,45.2,29.85,SE,144,15.0,18.0,60,0.00,,---,0.00,VWS V14.00,2013-03-09 10:55:00,
2013-03-09 05:00:00,59.0,45.2,29.85,SE,138,15.0,19.0,60,0.00,,---,0.00,VWS V14.00,2013-03-09 11:00:00,
2013-03-09 05:05:00,59.0,45.6,29.85,SE,143,11.0,16.0,61,0.00,,---,0.00,VWS V14.00,2013-03-09 11:05:00,
2013-03-09 05:10:00,59.0,45.6,29.85,SE,137,11.0,15.0,61,0.00,,---,0.00,VWS V14.00,2013-03-09 11:10:00,
2013-03-09 05:15:00,59.0,45.6,29.84,SE,133,13.0,16.0,61,0.00,,---,0.00,VWS V14.00,2013-03-09 11:15:00,
2013-03-09 05:20:00,59.0,45.6,29.85,SE,136,14.0,19.0,61,0.00,,---,0.00,VWS V14.00,2013-03-09 11:20:00,
2013-03-09 05:25:00,59.0,46.0,29.85,SE,137,14.0,19.0,62,0.00,,---,0.00,VWS V14.00,2013-03-09 11:25:00,
2013-03-09 05:30:00,59.0,46.0,29.85,SE,142,12.0,14.0,62,0.00,,---,0.00,VWS V14.00,2013-03-09 11:30:00,
2013-03-09 05:35:00,59.0,46.0,29.85,SE,146,10.0,17.0,62,0.00,,---,0.00,VWS V14.00,2013-03-09 11:35:00,
2013-03-09 05:40:00,59.0,46.0,29.85,SSE,162,12.0,15.0,62,0.00,,---,0.00,VWS V14.00,2013-03-09 11:40:00,
2013-03-09 05:45:00,59.0,46.4,29.85,SSE,151,6.0,11.0,63,0.00,,---,0.00,VWS V14.00,2013-03-09 11:45:00,
2013-03-09 05:50:00,59.0,46.4,29.85,SE,146,10.0,11.0,63,0.00,,---,0.00,VWS V14.00,2013-03-09 11:50:00,
2013-03-09 05:55:00,59.0,46.4,29.85,South,169,16.0,17.0,63,0.00,,---,0.00,VWS V14.00,2013-03-09 11:55:00,
2013-03-09 06:00:00,59.0,46.8,29.85,SE,141,14.0,20.0,64,0.00,,---,0.00,VWS V14.00,2013-03-09 12:00:00,
2013-03-09 06:05:00,59.0,46.8,29.85,SSE,155,11.0,17.0,64,0.00,,---,0.00,VWS V14.00,2013-03-09 12:05:00,
2013-03-09 06:10:00,59.0,47.3,29.86,SSE,159,11.0,15.0,65,0.00,,---,0.00,VWS V14.00,2013-03-09 12:10:00,
2013-03-09 06:15:00,58.9,47.2,29.86,SSE,153,7.0,10.0,65,0.00,,---,0.00,VWS V14.00,2013-03-09 12:15:00,
2013-03-09 06:20:00,58.8,47.5,29.87,South,175,16.0,16.0,66,0.00,,---,0.00,VWS V14.00,2013-03-09 12:20:00,
2013-03-09 06:25:00,58.7,47.4,29.86,SSE,152,14.0,16.0,66,0.00,,---,0.00,VWS V14.00,2013-03-09 12:25:00,
2013-03-09 06:30:00,58.6,47.3,29.86,SSE,167,14.0,14.0,66,0.00,,---,0.00,VWS V14.00,2013-03-09 12:30:00,
2013-03-09 06:35:00,58.6,47.7,29.86,SSE,161,12.0,16.0,67,0.00,,---,0.00,VWS V14.00,2013-03-09 12:35:00,
2013-03-09 06:40:00,58.6,47.7,29.86,SE,140,11.0,14.0,67,0.00,,---,0.00,VWS V14.00,2013-03-09 12:40:00,
2013-03-09 06:45:00,58.5,47.6,29.86,SSE,153,11.0,16.0,67,0.00,,---,0.00,VWS V14.00,2013-03-09 12:45:00,
2013-03-09 06:50:00,58.4,47.9,29.87,SE,146,12.0,14.0,68,0.00,,---,0.00,VWS V14.00,2013-03-09 12:50:00,
2013-03-09 06:55:00,58.3,47.8,29.87,SSE,159,10.0,11.0,68,0.00,,---,0.00,VWS V14.00,2013-03-09 12:55:00,
2013-03-09 07:00:00,58.2,48.1,29.86,SSE,163,16.0,16.0,69,0.00,,---,0.00,VWS V14.00,2013-03-09 13:00:00,
2013-03-09 07:05:00,58.2,48.1,29.85,SSE,159,14.0,15.0,69,0.00,,---,0.00,VWS V14.00,2013-03-09 13:05:00,
2013-03-09 07:10:00,58.2,48.1,29.85,SSE,156,10.0,11.0,69,0.00,,---,0.00,VWS V14.00,2013-03-09 13:10:00,
2013-03-09 07:15:00,58.2,48.5,29.85,SSE,156,7.0,14.0,70,0.00,,---,0.00,VWS V14.00,2013-03-09 13:15:00,
2013-03-09 07:20:00,58.2,48.5,29.85,SSE,158,11.0,14.0,70,0.00,,---,0.00,VWS V14.00,2013-03-09 13:20:00,
2013-03-09 07:25:00,58.2,48.8,29.85,SE,142,11.0,15.0,71,0.00,,---,0.00,VWS V14.00,2013-03-09 13:25:00,
2013-03-09 07:30:00,58.2,48.8,29.85,SSE,150,7.0,8.0,71,0.00,,---,0.00,VWS V14.00,2013-03-09 13:30:00,
2013-03-09 07:35:00,58.1,48.8,29.85,SSE,147,12.0,13.0,71,0.00,,---,0.00,VWS V14.00,2013-03-09 13:35:00,
2013-03-09 07:40:00,58.1,48.8,29.85,SSE,159,7.0,14.0,71,0.00,,---,0.00,VWS V14.00,2013-03-09 13:40:00,
2013-03-09 07:45:00,58.0,48.7,29.85,South,175,9.0,12.0,71,0.00,,---,0.00,VWS V14.00,2013-03-09 13:45:00,
2013-03-09 07:50:00,58.0,49.0,29.85,SSE,159,10.0,13.0,72,0.00,,---,0.00,VWS V14.00,2013-03-09 13:50:00,
2013-03-09 07:55:00,58.0,49.0,29.85,South,171,14.0,16.0,72,0.00,,---,0.00,VWS V14.00,2013-03-09 13:55:00,
2013-03-09 08:00:00,58.0,49.4,29.85,SSE,159,7.0,9.0,73,0.00,,---,0.00,VWS V14.00,2013-03-09 14:00:00,
2013-03-09 08:05:00,57.9,49.3,29.84,SSE,163,8.0,16.0,73,0.00,,---,0.00,VWS V14.00,2013-03-09 14:05:00,
2013-03-09 08:10:00,57.9,49.3,29.84,SSE,155,17.0,18.0,73,0.00,,---,0.00,VWS V14.00,2013-03-09 14:10:00,
2013-03-09 08:15:00,57.9,49.7,29.84,SSE,159,10.0,12.0,74,0.00,,---,0.00,VWS V14.00,2013-03-09 14:15:00,
2013-03-09 08:20:00,57.9,49.7,29.84,SE,144,7.0,14.0,74,0.00,,---,0.00,VWS V14.00,2013-03-09 14:20:00,
2013-03-09 08:25:00,57.9,49.7,29.84,SSE,161,10.0,16.0,74,0.00,,---,0.00,VWS V14.00,2013-03-09 14:25:00,
2013-03-09 08:30:00,58.0,50.1,29.84,SSE,157,10.0,19.0,75,0.00,,---,0.00,VWS V14.00,2013-03-09 14:30:00,
2013-03-09 08:35:00,58.0,50.1,29.83,SSE,164,15.0,23.0,75,0.00,,---,0.00,VWS V14.00,2013-03-09 14:35:00,
2013-03-09 08:40:00,57.8,50.3,29.83,SSE,159,12.0,12.0,76,0.00,,---,0.00,VWS V14.00,2013-03-09 14:40:00,
2013-03-09 08:45:00,57.8,50.7,29.82,SE,141,15.0,19.0,77,0.00,,---,0.00,VWS V14.00,2013-03-09 14:45:00,
2013-03-09 08:50:00,57.8,50.7,29.82,SSE,158,13.0,15.0,77,0.00,,---,0.00,VWS V14.00,2013-03-09 14:50:00,
2013-03-09 08:55:00,58.0,50.8,29.82,SSE,166,5.0,12.0,77,0.00,,---,0.00,VWS V14.00,2013-03-09 14:55:00,
2013-03-09 09:00:00,58.0,50.8,29.82,SSE,158,18.0,18.0,77,0.00,,---,0.00,VWS V14.00,2013-03-09 15:00:00,
2013-03-09 09:05:00,58.0,50.8,29.82,SSE,159,13.0,18.0,77,0.00,,---,0.00,VWS V14.00,2013-03-09 15:05:00,
2013-03-09 09:10:00,58.0,51.2,29.81,SSE,150,17.0,24.0,78,0.00,,---,0.00,VWS V14.00,2013-03-09 15:10:00,
2013-03-09 09:15:00,58.0,51.2,29.81,SSE,153,17.0,22.0,78,0.00,,---,0.00,VWS V14.00,2013-03-09 15:15:00,
2013-03-09 09:20:00,58.1,51.3,29.81,South,175,15.0,17.0,78,0.00,,---,0.00,VWS V14.00,2013-03-09 15:20:00,
2013-03-09 09:25:00,58.1,51.3,29.80,South,171,17.0,19.0,78,0.00,,---,0.00,VWS V14.00,2013-03-09 15:25:00,
2013-03-09 09:30:00,58.2,51.4,29.80,SSE,159,13.0,18.0,78,0.00,,---,0.00,VWS V14.00,2013-03-09 15:30:00,
2013-03-09 09:35:00,58.3,51.5,29.79,SSE,159,13.0,13.0,78,0.00,,---,0.00,VWS V14.00,2013-03-09 15:35:00,
2013-03-09 09:40:00,58.4,51.6,29.80,SSE,152,13.0,15.0,78,0.00,,---,0.00,VWS V14.00,2013-03-09 15:40:00,
2013-03-09 09:45:00,58.5,51.7,29.79,SE,146,11.0,21.0,78,0.00,,---,0.00,VWS V14.00,2013-03-09 15:45:00,
2013-03-09 09:50:00,58.5,51.7,29.79,SSE,155,11.0,12.0,78,0.00,,---,0.00,VWS V14.00,2013-03-09 15:50:00,
2013-03-09 09:55:00,58.6,51.8,29.79,SSE,168,16.0,16.0,78,0.00,,---,0.00,VWS V14.00,2013-03-09 15:55:00,
2013-03-09 10:00:00,58.7,52.2,29.79,SE,139,10.0,16.0,79,0.00,,---,0.00,VWS V14.00,2013-03-09 16:00:00,
2013-03-09 10:05:00,58.8,52.3,29.78,SE,142,21.0,25.0,79,0.00,,---,0.00,VWS V14.00,2013-03-09 16:05:00,
2013-03-09 10:09:00,59.0,52.5,29.78,SSE,147,11.0,17.0,79,0.00,,---,0.00,VWS V14.00,2013-03-09 16:09:00,
2013-03-09 10:10:00,60.5,53.6,29.76,SSE,161,20.0,29.0,78,0.00,,---,0.00,VWS V14.00,2013-03-09 16:10:00,
2013-03-09 10:14:00,59.0,52.5,29.78,SE,142,17.0,18.0,79,0.00,,---,0.00,VWS V14.00,2013-03-09 16:14:00,
2013-03-09 10:15:00,60.7,53.8,29.75,SSE,163,20.0,25.0,78,0.00,,---,0.00,VWS V14.00,2013-03-09 16:15:00,
2013-03-09 10:19:00,59.0,52.5,29.78,SE,134,15.0,16.0,79,0.00,,---,0.00,VWS V14.00,2013-03-09 16:19:00,
2013-03-09 10:20:00,60.8,53.9,29.75,SSE,153,12.0,29.0,78,0.00,,---,0.00,VWS V14.00,2013-03-09 16:20:00,
2013-03-09 10:24:00,59.4,52.9,29.77,SE,130,15.0,20.0,79,0.00,,---,0.00,VWS V14.00,2013-03-09 16:24:00,
2013-03-09 10:25:00,60.9,54.0,29.75,SSE,163,17.0,27.0,78,0.00,,---,0.00,VWS V14.00,2013-03-09 16:25:00,
2013-03-09 10:29:00,59.6,53.1,29.77,SSE,161,8.0,13.0,79,0.00,,---,0.00,VWS V14.00,2013-03-09 16:29:00,
2013-03-09 10:30:00,60.9,54.0,29.75,SSE,153,22.0,29.0,78,0.00,,---,0.00,VWS V14.00,2013-03-09 16:30:00,
2013-03-09 10:34:00,59.8,52.9,29.77,SE,136,16.0,24.0,78,0.00,,---,0.00,VWS V14.00,2013-03-09 16:34:00,
2013-03-09 10:35:00,60.9,54.0,29.75,SSE,148,16.0,27.0,78,0.00,,---,0.00,VWS V14.00,2013-03-09 16:35:00,
2013-03-09 10:39:00,60.0,53.1,29.77,SE,134,11.0,18.0,78,0.00,,---,0.00,VWS V14.00,2013-03-09 16:39:00,
2013-03-09 10:40:00,61.2,54.3,29.74,SE,125,17.0,24.0,78,0.00,,---,0.00,VWS V14.00,2013-03-09 16:40:00,
2013-03-09 10:44:00,60.2,53.3,29.77,SE,135,17.0,17.0,78,0.00,,---,0.00,VWS V14.00,2013-03-09 16:44:00,
2013-03-09 10:45:00,61.3,54.4,29.74,SE,136,26.0,26.0,78,0.00,,---,0.00,VWS V14.00,2013-03-09 16:45:00,
2013-03-09 10:49:00,60.4,53.5,29.76,SSE,165,18.0,22.0,78,0.00,,---,0.00,VWS V14.00,2013-03-09 16:49:00,
2013-03-09 10:50:00,61.3,54.4,29.74,SE,138,18.0,31.0,78,0.00,,---,0.00,VWS V14.00,2013-03-09 16:50:00,
2013-03-09 10:54:00,60.5,53.6,29.76,SSE,165,23.0,24.0,78,0.00,,---,0.00,VWS V14.00,2013-03-09 16:54:00,
2013-03-09 10:55:00,61.4,54.5,29.74,SSE,163,20.0,25.0,78,0.00,,---,0.00,VWS V14.00,2013-03-09 16:55:00,
2013-03-09 10:59:00,60.5,53.6,29.76,SE,146,25.0,25.0,78,0.00,,---,0.00,VWS V14.00,2013-03-09 16:59:00,
2013-03-09 11:00:00,61.6,54.7,29.73,SE,145,18.0,25.0,78,0.00,,---,0.00,VWS V14.00,2013-03-09 17:00:00,
2013-03-09 11:04:00,60.5,53.6,29.76,SSE,160,27.0,27.0,78,0.00,,---,0.00,VWS V14.00,2013-03-09 17:04:00,
2013-03-09 11:05:00,61.7,54.8,29.73,SSE,155,20.0,33.0,78,0.00,,---,0.00,VWS V14.00,2013-03-09 17:05:00,
2013-03-09 11:09:00,60.5,53.6,29.76,SE,130,16.0,25.0,78,0.00,,---,0.00,VWS V14.00,2013-03-09 17:09:00,
2013-03-09 11:10:00,61.8,54.9,29.73,SSE,157,12.0,27.0,78,0.00,,---,0.00,VWS V14.00,2013-03-09 17:10:00,
2013-03-09 11:14:00,60.7,53.8,29.75,SSE,156,20.0,26.0,78,0.00,,---,0.00,VWS V14.00,2013-03-09 17:14:00,
2013-03-09 11:15:00,62.1,55.2,29.73,SSE,155,22.0,22.0,78,0.00,,---,0.00,VWS V14.00,2013-03-09 17:15:00,
2013-03-09 11:19:00,60.8,53.9,29.75,SE,139,19.0,20.0,78,0.00,,---,0.00,VWS V14.00,2013-03-09 17:19:00,
2013-03-09 11:20:00,62.5,55.2,29.73,SE,144,16.0,28.0,77,0.00,,---,0.00,VWS V14.00,2013-03-09 17:20:00,
2013-03-09 11:24:00,60.9,54.0,29.75,SSE,147,16.0,21.0,78,0.00,,---,0.00,VWS V14.00,2013-03-09 17:24:00,
2013-03-09 11:25:00,62.7,55.4,29.73,SE,137,18.0,26.0,77,0.00,,---,0.00,VWS V14.00,2013-03-09 17:25:00,
2013-03-09 11:29:00,60.9,54.0,29.75,South,180,24.0,24.0,78,0.00,,---,0.00,VWS V14.00,2013-03-09 17:29:00,
2013-03-09 11:30:00,63.1,55.4,29.72,SSE,157,21.0,28.0,76,0.00,,---,0.00,VWS V14.00,2013-03-09 17:30:00,
2013-03-09 11:34:00,61.0,54.1,29.75,SSE,165,9.0,16.0,78,0.00,,---,0.00,VWS V14.00,2013-03-09 17:34:00,
2013-03-09 11:35:00,63.2,55.5,29.72,SSE,158,20.0,30.0,76,0.00,,---,0.00,VWS V14.00,2013-03-09 17:35:00,
2013-03-09 11:39:00,61.2,54.3,29.74,SE,142,13.0,20.0,78,0.00,,---,0.00,VWS V14.00,2013-03-09 17:39:00,
2013-03-09 11:40:00,63.1,55.4,29.72,SSE,166,16.0,27.0,76,0.00,,---,0.00,VWS V14.00,2013-03-09 17:40:00,
2013-03-09 11:44:00,61.3,54.4,29.74,SSE,148,15.0,28.0,78,0.00,,---,0.00,VWS V14.00,2013-03-09 17:44:00,
2013-03-09 11:45:00,62.9,55.2,29.72,SE,146,16.0,29.0,76,0.00,,---,0.00,VWS V14.00,2013-03-09 17:45:00,
2013-03-09 11:49:00,61.3,54.4,29.73,SSE,152,15.0,19.0,78,0.00,,---,0.00,VWS V14.00,2013-03-09 17:49:00,
2013-03-09 11:50:00,62.7,55.0,29.72,SE,126,15.0,27.0,76,0.00,,---,0.00,VWS V14.00,2013-03-09 17:50:00,
2013-03-09 11:54:00,61.4,54.5,29.73,SE,134,14.0,21.0,78,0.00,,---,0.00,VWS V14.00,2013-03-09 17:54:00,
2013-03-09 11:55:00,62.6,54.9,29.72,SSE,150,17.0,29.0,76,0.00,,---,0.00,VWS V14.00,2013-03-09 17:55:00,
2013-03-09 11:59:00,61.6,54.7,29.73,SE,128,24.0,33.0,78,0.00,,---,0.00,VWS V14.00,2013-03-09 17:59:00,
2013-03-09 12:00:00,62.4,55.1,29.71,South,171,15.0,32.0,77,0.00,,---,0.00,VWS V14.00,2013-03-09 18:00:00,
2013-03-09 12:04:00,61.7,54.8,29.74,SSE,161,13.0,27.0,78,0.00,,---,0.00,VWS V14.00,2013-03-09 18:04:00,
2013-03-09 12:05:00,62.2,54.9,29.71,SSE,168,19.0,29.0,77,0.00,,---,0.00,VWS V14.00,2013-03-09 18:05:00,
2013-03-09 12:09:00,61.8,54.9,29.73,SE,132,14.0,14.0,78,0.00,,---,0.00,VWS V14.00,2013-03-09 18:09:00,
2013-03-09 12:10:00,62.1,55.2,29.71,SSE,161,24.0,29.0,78,0.00,,---,0.00,VWS V14.00,2013-03-09 18:10:00,
2013-03-09 12:14:00,62.1,55.2,29.74,South,169,24.0,24.0,78,0.00,,---,0.00,VWS V14.00,2013-03-09 18:14:00,
2013-03-09 12:15:00,62.1,55.2,29.71,SSE,148,16.0,28.0,78,0.00,,---,0.00,VWS V14.00,2013-03-09 18:15:00,
2013-03-09 12:19:00,62.5,55.2,29.73,SSE,150,16.0,24.0,77,0.00,,---,0.00,VWS V14.00,2013-03-09 18:19:00,
2013-03-09 12:20:00,61.9,55.3,29.70,South,179,13.0,26.0,79,0.00,,---,0.00,VWS V14.00,2013-03-09 18:20:00,
2013-03-09 12:24:00,62.7,55.4,29.72,SSE,151,17.0,20.0,77,0.00,,---,0.00,VWS V14.00,2013-03-09 18:24:00,
2013-03-09 12:25:00,61.8,55.2,29.70,South,169,13.0,27.0,79,0.00,,---,0.00,VWS V14.00,2013-03-09 18:25:00,
2013-03-09 12:29:00,63.1,55.4,29.72,SSE,158,13.0,22.0,76,0.00,,---,0.00,VWS V14.00,2013-03-09 18:29:00,
2013-03-09 12:30:00,61.7,55.1,29.69,SSE,150,16.0,24.0,79,0.00,,---,0.00,VWS V14.00,2013-03-09 18:30:00,
2013-03-09 12:34:00,63.2,55.5,29.72,South,175,16.0,21.0,76,0.00,,---,0.00,VWS V14.00,2013-03-09 18:34:00,
2013-03-09 12:35:00,61.7,55.1,29.69,SSW,197,17.0,26.0,79,0.00,,---,0.00,VWS V14.00,2013-03-09 18:35:00,
2013-03-09 12:39:00,63.1,55.4,29.72,SSE,155,16.0,17.0,76,0.00,,---,0.00,VWS V14.00,2013-03-09 18:39:00,
2013-03-09 12:40:00,61.8,55.6,29.68,ESE,123,17.0,24.0,80,0.00,,---,0.00,VWS V14.00,2013-03-09 18:40:00,
2013-03-09 12:44:00,62.9,55.2,29.72,SSE,153,22.0,22.0,76,0.00,,---,0.00,VWS V14.00,2013-03-09 18:44:00,
2013-03-09 12:45:00,61.8,55.6,29.68,SSE,155,14.0,27.0,80,0.00,,---,0.00,VWS V14.00,2013-03-09 18:45:00,
2013-03-09 12:49:00,62.7,55.0,29.72,SSE,153,19.0,24.0,76,0.00,,---,0.00,VWS V14.00,2013-03-09 18:49:00,
2013-03-09 12:50:00,61.7,55.5,29.68,SE,144,19.0,27.0,80,0.00,,---,0.00,VWS V14.00,2013-03-09 18:50:00,
2013-03-09 12:54:00,62.6,54.9,29.72,SE,141,16.0,28.0,76,0.00,,---,0.00,VWS V14.00,2013-03-09 18:54:00,
2013-03-09 12:55:00,61.8,55.6,29.68,SE,139,9.0,22.0,80,0.00,,---,0.00,VWS V14.00,2013-03-09 18:55:00,
2013-03-09 12:59:00,62.3,55.0,29.71,South,183,20.0,23.0,77,0.00,,---,0.00,VWS V14.00,2013-03-09 18:59:00,
2013-03-09 13:00:00,61.8,55.6,29.68,SE,146,14.0,21.0,80,0.00,,---,0.00,VWS V14.00,2013-03-09 19:00:00,
2013-03-09 13:04:00,62.2,55.3,29.71,South,180,15.0,28.0,78,0.00,,---,0.00,VWS V14.00,2013-03-09 19:04:00,
2013-03-09 13:05:00,61.8,55.6,29.68,SSE,153,12.0,18.0,80,0.00,,---,0.00,VWS V14.00,2013-03-09 19:05:00,
2013-03-09 13:09:00,62.1,55.2,29.71,SE,146,28.0,28.0,78,0.00,,---,0.00,VWS V14.00,2013-03-09 19:09:00,
2013-03-09 13:10:00,61.9,55.7,29.68,SE,136,13.0,26.0,80,0.00,,---,0.00,VWS V14.00,2013-03-09 19:10:00,
2013-03-09 13:14:00,62.0,55.1,29.70,SSE,168,13.0,16.0,78,0.00,,---,0.00,VWS V14.00,2013-03-09 19:14:00,
2013-03-09 13:15:00,61.9,55.7,29.68,SE,146,10.0,25.0,80,0.00,,---,0.00,VWS V14.00,2013-03-09 19:15:00,
2013-03-09 13:19:00,61.9,55.3,29.70,SSE,164,20.0,20.0,79,0.00,,---,0.00,VWS V14.00,2013-03-09 19:19:00,
2013-03-09 13:20:00,61.8,55.6,29.68,SE,146,16.0,20.0,80,0.00,,---,0.00,VWS V14.00,2013-03-09 19:20:00,
2013-03-09 13:24:00,61.8,55.2,29.70,SSE,159,14.0,19.0,79,0.00,,---,0.00,VWS V14.00,2013-03-09 19:24:00,
2013-03-09 13:25:00,61.8,55.9,29.68,SSE,160,17.0,25.0,81,0.00,,---,0.00,VWS V14.00,2013-03-09 19:25:00,
2013-03-09 13:29:00,61.7,55.1,29.69,SE,133,15.0,23.0,79,0.00,,---,0.00,VWS V14.00,2013-03-09 19:29:00,
2013-03-09 13:30:00,61.8,55.9,29.68,SSE,151,16.0,21.0,81,0.00,,---,0.00,VWS V14.00,2013-03-09 19:30:00,
2013-03-09 13:34:00,61.7,55.1,29.69,SSE,165,14.0,20.0,79,0.00,,---,0.00,VWS V14.00,2013-03-09 19:34:00,
2013-03-09 13:35:00,61.9,56.0,29.67,SSE,165,19.0,27.0,81,0.00,,---,0.00,VWS V14.00,2013-03-09 19:35:00,
2013-03-09 13:39:00,61.7,55.5,29.68,SE,126,15.0,20.0,80,0.00,,---,0.00,VWS V14.00,2013-03-09 19:39:00,
2013-03-09 13:40:00,62.0,56.1,29.67,SSE,153,15.0,25.0,81,0.00,,---,0.00,VWS V14.00,2013-03-09 19:40:00,
2013-03-09 13:44:00,61.8,55.6,29.68,SSE,161,16.0,19.0,80,0.00,,---,0.00,VWS V14.00,2013-03-09 19:44:00,
2013-03-09 13:45:00,62.0,56.1,29.67,South,171,12.0,24.0,81,0.00,,---,0.00,VWS V14.00,2013-03-09 19:45:00,
2013-03-09 13:49:00,61.7,55.5,29.67,SE,124,18.0,19.0,80,0.00,,---,0.00,VWS V14.00,2013-03-09 19:49:00,
2013-03-09 13:50:00,62.1,56.2,29.66,SE,128,22.0,22.0,81,0.00,,---,0.00,VWS V14.00,2013-03-09 19:50:00,
2013-03-09 13:54:00,61.8,55.6,29.68,SSE,150,10.0,11.0,80,0.00,,---,0.00,VWS V14.00,2013-03-09 19:54:00,
2013-03-09 13:55:00,62.2,56.3,29.66,SE,144,12.0,25.0,81,0.00,,---,0.00,VWS V14.00,2013-03-09 19:55:00,
2013-03-09 13:59:00,61.8,55.6,29.68,South,175,13.0,15.0,80,0.00,,---,0.00,VWS V14.00,2013-03-09 19:59:00,
2013-03-09 14:00:00,62.2,56.0,29.66,SSE,154,9.0,20.0,80,0.00,,---,0.00,VWS V14.00,2013-03-09 20:00:00,
2013-03-09 14:04:00,61.8,55.6,29.68,SSE,153,9.0,13.0,80,0.00,,---,0.00,VWS V14.00,2013-03-09 20:04:00,
2013-03-09 14:05:00,62.2,56.3,29.66,SSE,147,12.0,22.0,81,0.00,,---,0.00,VWS V14.00,2013-03-09 20:05:00,
2013-03-09 14:09:00,61.9,55.7,29.68,SSE,148,11.0,19.0,80,0.00,,---,0.00,VWS V14.00,2013-03-09 20:09:00,
2013-03-09 14:10:00,62.2,56.3,29.66,SSE,160,18.0,21.0,81,0.00,,---,0.00,VWS V14.00,2013-03-09 20:10:00,
2013-03-09 14:14:00,61.9,55.7,29.68,SSE,157,13.0,13.0,80,0.00,,---,0.00,VWS V14.00,2013-03-09 20:14:00,
2013-03-09 14:15:00,62.2,56.3,29.66,SSE,151,10.0,21.0,81,0.00,,---,0.00,VWS V14.00,2013-03-09 20:15:00,
2013-03-09 14:19:00,61.8,55.6,29.68,SSE,155,11.0,17.0,80,0.00,,---,0.00,VWS V14.00,2013-03-09 20:19:00,
2013-03-09 14:20:00,62.2,56.3,29.65,SSE,153,14.0,18.0,81,0.00,,---,0.00,VWS V14.00,2013-03-09 20:20:00,
2013-03-09 14:24:00,61.8,55.9,29.68,SSE,163,14.0,18.0,81,0.00,,---,0.00,VWS V14.00,2013-03-09 20:24:00,
2013-03-09 14:25:00,62.1,56.2,29.66,SSE,148,9.0,19.0,81,0.00,,---,0.00,VWS V14.00,2013-03-09 20:25:00,
2013-03-09 14:29:00,61.8,55.9,29.68,SSE,153,17.0,17.0,81,0.00,,---,0.00,VWS V14.00,2013-03-09 20:29:00,
2013-03-09 14:30:00,62.1,56.2,29.66,SSE,148,11.0,21.0,81,0.00,,---,0.00,VWS V14.00,2013-03-09 20:30:00,
2013-03-09 14:34:00,61.9,56.0,29.67,SE,142,16.0,23.0,81,0.00,,---,0.00,VWS V14.00,2013-03-09 20:34:00,
2013-03-09 14:35:00,62.0,56.1,29.65,SSE,149,13.0,20.0,81,0.00,,---,0.00,VWS V14.00,2013-03-09 20:35:00,
2013-03-09 14:39:00,62.0,56.1,29.67,SE,144,16.0,16.0,81,0.00,,---,0.00,VWS V14.00,2013-03-09 20:39:00,
2013-03-09 14:40:00,62.0,56.5,29.65,SSE,162,11.0,21.0,82,0.00,,---,0.00,VWS V14.00,2013-03-09 20:40:00,
2013-03-09 14:44:00,62.1,56.2,29.67,SSE,163,11.0,14.0,81,0.00,,---,0.00,VWS V14.00,2013-03-09 20:44:00,
2013-03-09 14:45:00,61.9,56.3,29.65,SSE,151,10.0,19.0,82,0.00,,---,0.00,VWS V14.00,2013-03-09 20:45:00,
2013-03-09 14:49:00,62.2,56.3,29.66,SE,143,15.0,25.0,81,0.00,,---,0.00,VWS V14.00,2013-03-09 20:49:00,
2013-03-09 14:50:00,61.8,56.6,29.65,SE,139,11.0,18.0,83,0.00,,---,0.00,VWS V14.00,2013-03-09 20:50:00,
2013-03-09 14:54:00,62.2,56.3,29.66,SSE,161,9.0,19.0,81,0.00,,---,0.00,VWS V14.00,2013-03-09 20:54:00,
2013-03-09 14:55:00,61.5,56.3,29.65,SSE,147,10.0,16.0,83,0.00,,---,0.00,VWS V14.00,2013-03-09 20:55:00,
2013-03-09 14:59:00,62.2,56.0,29.66,SE,140,13.0,13.0,80,0.00,,---,0.00,VWS V14.00,2013-03-09 20:59:00,
2013-03-09 15:00:00,61.3,56.4,29.65,SE,137,8.0,19.0,84,0.00,,---,0.00,VWS V14.00,2013-03-09 21:00:00,
2013-03-09 15:04:00,62.2,56.3,29.66,SSE,163,11.0,15.0,81,0.00,,---,0.00,VWS V14.00,2013-03-09 21:04:00,
2013-03-09 15:05:00,61.2,56.3,29.64,SSE,155,6.0,19.0,84,0.00,,---,0.00,VWS V14.00,2013-03-09 21:05:00,
2013-03-09 15:09:00,62.2,56.3,29.66,SSE,160,12.0,21.0,81,0.00,,---,0.00,VWS V14.00,2013-03-09 21:09:00,
2013-03-09 15:10:00,61.2,56.3,29.63,SE,138,16.0,20.0,84,0.00,,---,0.00,VWS V14.00,2013-03-09 21:10:00,
2013-03-09 15:14:00,62.2,56.3,29.66,SSE,165,10.0,13.0,81,0.00,,---,0.00,VWS V14.00,2013-03-09 21:14:00,
2013-03-09 15:15:00,61.2,56.7,29.63,SE,138,15.0,18.0,85,0.00,,---,0.00,VWS V14.00,2013-03-09 21:15:00,
2013-03-09 15:19:00,62.2,56.3,29.65,SSE,155,12.0,15.0,81,0.00,,---,0.00,VWS V14.00,2013-03-09 21:19:00,
2013-03-09 15:20:00,61.2,56.7,29.62,SE,138,15.0,20.0,85,0.00,,---,0.00,VWS V14.00,2013-03-09 21:20:00,
2013-03-09 15:24:00,62.1,56.2,29.65,SSE,167,12.0,13.0,81,0.00,,---,0.00,VWS V14.00,2013-03-09 21:24:00,
2013-03-09 15:25:00,61.2,56.3,29.62,ESE,121,18.0,22.0,84,0.00,,---,0.00,VWS V14.00,2013-03-09 21:25:00,
2013-03-09 15:29:00,62.1,56.2,29.66,SSE,153,8.0,12.0,81,0.00,,---,0.00,VWS V14.00,2013-03-09 21:29:00,
2013-03-09 15:30:00,61.3,56.4,29.62,South,169,17.0,18.0,84,0.00,,---,0.00,VWS V14.00,2013-03-09 21:30:00,
2013-03-09 15:34:00,62.0,56.1,29.65,SE,146,12.0,16.0,81,0.00,,---,0.00,VWS V14.00,2013-03-09 21:34:00,
2013-03-09 15:35:00,61.3,56.4,29.62,SE,141,14.0,17.0,84,0.00,,---,0.00,VWS V14.00,2013-03-09 21:35:00,
2013-03-09 15:39:00,62.0,56.5,29.65,SSE,147,9.0,11.0,82,0.00,,---,0.00,VWS V14.00,2013-03-09 21:39:00,
2013-03-09 15:40:00,61.4,56.5,29.62,SSE,161,14.0,16.0,84,0.00,,---,0.00,VWS V14.00,2013-03-09 21:40:00,
2013-03-09 15:44:00,61.9,56.3,29.65,SE,146,12.0,13.0,82,0.00,,---,0.00,VWS V14.00,2013-03-09 21:44:00,
2013-03-09 15:45:00,61.4,56.5,29.63,SE,132,12.0,17.0,84,0.00,,---,0.00,VWS V14.00,2013-03-09 21:45:00,
2013-03-09 15:49:00,61.7,56.5,29.65,SE,141,10.0,13.0,83,0.00,,---,0.00,VWS V14.00,2013-03-09 21:49:00,
2013-03-09 15:50:00,61.5,56.6,29.62,SSE,154,7.0,24.0,84,0.00,,---,0.00,VWS V14.00,2013-03-09 21:50:00,
2013-03-09 15:54:00,61.5,56.3,29.65,SE,141,10.0,10.0,83,0.00,,---,0.00,VWS V14.00,2013-03-09 21:54:00,
2013-03-09 15:55:00,61.6,56.7,29.63,SSE,155,11.0,18.0,84,0.00,,---,0.00,VWS V14.00,2013-03-09 21:55:00,
2013-03-09 15:59:00,61.3,56.4,29.65,SSE,150,10.0,15.0,84,0.00,,---,0.00,VWS V14.00,2013-03-09 21:59:00,
2013-03-09 16:00:00,61.7,56.8,29.62,SE,136,14.0,16.0,84,0.00,,---,0.00,VWS V14.00,2013-03-09 22:00:00,
2013-03-09 16:04:00,61.2,56.3,29.64,SSE,148,12.0,15.0,84,0.00,,---,0.00,VWS V14.00,2013-03-09 22:04:00,
2013-03-09 16:05:00,61.7,56.8,29.63,SSE,163,14.0,20.0,84,0.00,,---,0.00,VWS V14.00,2013-03-09 22:05:00,
2013-03-09 16:09:00,61.2,56.3,29.63,SE,139,16.0,18.0,84,0.00,,---,0.00,VWS V14.00,2013-03-09 22:09:00,
2013-03-09 16:10:00,61.7,56.8,29.62,SSE,163,13.0,26.0,84,0.00,,---,0.00,VWS V14.00,2013-03-09 22:10:00,
2013-03-09 16:14:00,61.2,56.7,29.63,SE,124,14.0,15.0,85,0.00,,---,0.00,VWS V14.00,2013-03-09 22:14:00,
2013-03-09 16:15:00,61.8,56.9,29.62,SSE,159,14.0,24.0,84,0.00,,---,0.00,VWS V14.00,2013-03-09 22:15:00,
2013-03-09 16:19:00,61.2,56.7,29.62,SE,146,15.0,18.0,85,0.00,,---,0.00,VWS V14.00,2013-03-09 22:19:00,
2013-03-09 16:20:00,61.8,56.9,29.62,SE,145,11.0,23.0,84,0.00,,---,0.00,VWS V14.00,2013-03-09 22:20:00,
2013-03-09 16:24:00,61.2,56.3,29.62,SSE,153,15.0,18.0,84,0.00,,---,0.00,VWS V14.00,2013-03-09 22:24:00,
2013-03-09 16:25:00,61.6,57.0,29.61,SE,140,14.0,23.0,85,0.00,,---,0.00,VWS V14.00,2013-03-09 22:25:00,
2013-03-09 16:29:00,61.3,56.4,29.62,SSE,159,13.0,17.0,84,0.00,,---,0.00,VWS V14.00,2013-03-09 22:29:00,
2013-03-09 16:30:00,61.4,56.9,29.62,SE,144,14.0,21.0,85,0.00,,---,0.00,VWS V14.00,2013-03-09 22:30:00,
2013-03-09 16:34:00,61.3,56.4,29.62,SE,145,15.0,16.0,84,0.00,,---,0.00,VWS V14.00,2013-03-09 22:34:00,
2013-03-09 16:35:00,61.2,57.0,29.62,SE,145,13.0,20.0,86,0.00,,---,0.00,VWS V14.00,2013-03-09 22:35:00,
2013-03-09 16:39:00,61.4,56.5,29.62,SE,140,14.0,15.0,84,0.00,,---,0.00,VWS V14.00,2013-03-09 22:39:00,
2013-03-09 16:40:00,61.1,56.9,29.61,SE,139,12.0,21.0,86,0.00,,---,0.01,VWS V14.00,2013-03-09 22:40:00,
2013-03-09 16:44:00,61.4,56.5,29.63,SSE,167,16.0,17.0,84,0.00,,---,0.00,VWS V14.00,2013-03-09 22:44:00,
2013-03-09 16:45:00,61.0,56.8,29.61,SE,131,11.0,22.0,86,0.00,,---,0.01,VWS V14.00,2013-03-09 22:45:00,
2013-03-09 16:49:00,61.5,56.6,29.62,SE,132,13.0,13.0,84,0.00,,---,0.00,VWS V14.00,2013-03-09 22:49:00,
2013-03-09 16:50:00,60.9,57.0,29.61,SE,137,15.0,18.0,87,0.05,,---,0.02,VWS V14.00,2013-03-09 22:50:00,
2013-03-09 16:54:00,61.6,56.7,29.63,SSE,155,12.0,13.0,84,0.00,,---,0.00,VWS V14.00,2013-03-09 22:54:00,
2013-03-09 16:55:00,60.8,56.9,29.61,SE,134,10.0,16.0,87,0.09,,---,0.03,VWS V14.00,2013-03-09 22:55:00,
2013-03-09 16:59:00,61.7,56.8,29.62,SE,131,13.0,14.0,84,0.00,,---,0.00,VWS V14.00,2013-03-09 22:59:00,
2013-03-09 17:00:00,60.7,56.8,29.60,SE,145,17.0,18.0,87,0.09,,---,0.03,VWS V14.00,2013-03-09 23:00:00,
2013-03-09 17:04:00,61.7,56.8,29.63,SE,146,16.0,16.0,84,0.00,,---,0.00,VWS V14.00,2013-03-09 23:04:00,
2013-03-09 17:05:00,60.6,57.0,29.61,SE,131,15.0,17.0,88,0.08,,---,0.04,VWS V14.00,2013-03-09 23:05:00,
2013-03-09 17:09:00,61.8,56.9,29.62,SE,143,16.0,16.0,84,0.00,,---,0.00,VWS V14.00,2013-03-09 23:09:00,
2013-03-09 17:10:00,60.5,56.9,29.61,SE,133,11.0,16.0,88,0.11,,---,0.05,VWS V14.00,2013-03-09 23:10:00,
2013-03-09 17:14:00,61.8,56.9,29.63,South,169,14.0,18.0,84,0.00,,---,0.00,VWS V14.00,2013-03-09 23:14:00,
2013-03-09 17:15:00,60.4,56.8,29.61,SE,137,12.0,14.0,88,0.09,,---,0.06,VWS V14.00,2013-03-09 23:15:00,
2013-03-09 17:19:00,61.8,56.9,29.62,SSE,147,12.0,13.0,84,0.00,,---,0.00,VWS V14.00,2013-03-09 23:19:00,
2013-03-09 17:20:00,60.2,56.6,29.61,SSE,153,8.0,15.0,88,0.09,,---,0.06,VWS V14.00,2013-03-09 23:20:00,
2013-03-09 17:24:00,61.6,57.0,29.61,SSE,147,14.0,17.0,85,0.00,,---,0.00,VWS V14.00,2013-03-09 23:24:00,
2013-03-09 17:25:00,60.1,56.5,29.62,South,173,8.0,13.0,88,0.24,,---,0.08,VWS V14.00,2013-03-09 23:25:00,
2013-03-09 17:29:00,61.4,56.9,29.62,SSE,147,16.0,16.0,85,0.00,,---,0.00,VWS V14.00,2013-03-09 23:29:00,
2013-03-09 17:30:00,59.9,56.7,29.66,SW,221,14.0,21.0,89,2.12,,---,0.13,VWS V14.00,2013-03-09 23:30:00,
2013-03-09 17:34:00,61.3,57.1,29.62,SE,138,20.0,20.0,86,0.00,,---,0.00,VWS V14.00,2013-03-09 23:34:00,
2013-03-09 17:35:00,59.8,56.6,29.63,SW,225,5.0,14.0,89,0.42,,---,0.31,VWS V14.00,2013-03-09 23:35:00,
2013-03-09 17:39:00,61.1,56.9,29.61,SE,138,13.0,14.0,86,0.00,,---,0.01,VWS V14.00,2013-03-09 23:39:00,
2013-03-09 17:40:00,59.7,56.8,29.63,South,174,4.0,10.0,90,0.11,,---,0.31,VWS V14.00,2013-03-09 23:40:00,
2013-03-09 17:44:00,61.0,56.8,29.61,SE,136,12.0,12.0,86,0.00,,---,0.01,VWS V14.00,2013-03-09 23:44:00,
2013-03-09 17:45:00,59.6,56.7,29.63,South,170,4.0,10.0,90,0.06,,---,0.31,VWS V14.00,2013-03-09 23:45:00,
2013-03-09 17:49:00,60.9,57.0,29.61,SE,141,13.0,15.0,87,0.05,,---,0.02,VWS V14.00,2013-03-09 23:49:00,
2013-03-09 17:50:00,59.5,56.6,29.65,South,184,10.0,14.0,90,0.05,,---,0.32,VWS V14.00,2013-03-09 23:50:00,
2013-03-09 17:54:00,60.8,56.9,29.61,SE,137,10.0,13.0,87,0.09,,---,0.03,VWS V14.00,2013-03-09 23:54:00,
2013-03-09 17:55:00,59.3,56.4,29.64,SSW,195,11.0,14.0,90,0.09,,---,0.33,VWS V14.00,2013-03-09 23:55:00,
2013-03-09 17:59:00,60.7,56.8,29.60,SE,138,12.0,17.0,87,0.09,,---,0.03,VWS V14.00,2013-03-09 23:59:00,
2013-03-09 18:00:00,59.0,56.1,29.64,South,177,9.0,13.0,90,0.10,,---,0.34,VWS V14.00,2013-03-10 00:00:00,
2013-03-09 18:04:00,60.6,57.0,29.61,SSE,154,10.0,15.0,88,0.08,,---,0.04,VWS V14.00,2013-03-10 00:04:00,
2013-03-09 18:05:00,59.0,56.1,29.64,South,170,6.0,12.0,90,0.10,,---,0.34,VWS V14.00,2013-03-10 00:05:00,
2013-03-09 18:09:00,60.5,56.9,29.61,SE,132,11.0,11.0,88,0.11,,---,0.05,VWS V14.00,2013-03-10 00:09:00,
2013-03-09 18:10:00,58.7,55.8,29.62,South,170,4.0,10.0,90,0.08,,---,0.35,VWS V14.00,2013-03-10 00:10:00,
2013-03-09 18:14:00,60.4,56.8,29.61,SE,136,10.0,12.0,88,0.09,,---,0.06,VWS V14.00,2013-03-10 00:14:00,
2013-03-09 18:15:00,58.6,56.0,29.61,South,170,4.0,4.0,91,0.12,,---,0.36,VWS V14.00,2013-03-10 00:15:00,
2013-03-09 18:19:00,60.2,56.6,29.62,SSE,153,6.0,8.0,88,0.09,,---,0.06,VWS V14.00,2013-03-10 00:19:00,
2013-03-09 18:20:00,58.4,55.8,29.62,SSE,165,9.0,9.0,91,0.14,,---,0.37,VWS V14.00,2013-03-10 00:20:00,
2013-03-09 18:24:00,60.1,56.5,29.62,South,174,9.0,11.0,88,0.24,,---,0.08,VWS V14.00,2013-03-10 00:24:00,
2013-03-09 18:25:00,58.3,55.7,29.62,SSE,157,7.0,9.0,91,0.07,,---,0.37,VWS V14.00,2013-03-10 00:25:00,
2013-03-09 18:29:00,59.9,56.7,29.67,SW,226,13.0,14.0,89,2.12,,---,0.13,VWS V14.00,2013-03-10 00:29:00,
2013-03-09 18:30:00,58.1,55.5,29.63,SSE,156,5.0,9.0,91,0.04,,---,0.37,VWS V14.00,2013-03-10 00:30:00,
2013-03-09 18:34:00,59.8,56.6,29.63,SW,225,4.0,5.0,89,0.42,,---,0.31,VWS V14.00,2013-03-10 00:34:00,
2013-03-09 18:35:00,57.8,55.2,29.64,South,175,9.0,12.0,91,0.04,,---,0.38,VWS V14.00,2013-03-10 00:35:00,
2013-03-09 18:39:00,59.7,56.8,29.63,South,174,5.0,6.0,90,0.11,,---,0.31,VWS V14.00,2013-03-10 00:39:00,
2013-03-09 18:40:00,57.6,55.0,29.64,South,182,6.0,11.0,91,0.12,,---,0.39,VWS V14.00,2013-03-10 00:40:00,
2013-03-09 18:44:00,59.6,56.7,29.63,South,170,4.0,4.0,90,0.06,,---,0.31,VWS V14.00,2013-03-10 00:44:00,
2013-03-09 18:45:00,57.4,54.8,29.64,South,178,6.0,10.0,91,0.08,,---,0.40,VWS V14.00,2013-03-10 00:45:00,
2013-03-09 18:49:00,59.5,56.6,29.64,South,186,9.0,11.0,90,0.05,,---,0.32,VWS V14.00,2013-03-10 00:49:00,
2013-03-09 18:50:00,57.2,54.6,29.64,South,176,4.0,10.0,91,0.16,,---,0.41,VWS V14.00,2013-03-10 00:50:00,
2013-03-09 18:54:00,59.3,56.4,29.64,SSW,195,9.0,11.0,90,0.09,,---,0.33,VWS V14.00,2013-03-10 00:54:00,
2013-03-09 18:55:00,57.1,54.5,29.63,South,178,3.0,6.0,91,0.08,,---,0.41,VWS V14.00,2013-03-10 00:55:00,
2013-03-09 18:59:00,59.0,56.1,29.64,South,176,7.0,10.0,90,0.10,,---,0.34,VWS V14.00,2013-03-10 00:59:00,
2013-03-09 19:00:00,56.9,54.3,29.63,South,178,4.0,5.0,91,0.05,,---,0.41,VWS V14.00,2013-03-10 01:00:00,
2013-03-09 19:04:00,59.0,56.1,29.64,South,170,7.0,7.0,90,0.10,,---,0.34,VWS V14.00,2013-03-10 01:04:00,
2013-03-09 19:05:00,56.8,54.2,29.63,South,178,4.0,5.0,91,0.00,,---,0.41,VWS V14.00,2013-03-10 01:05:00,
2013-03-09 19:09:00,58.7,55.8,29.62,South,170,4.0,4.0,90,0.08,,---,0.35,VWS V14.00,2013-03-10 01:09:00,
2013-03-09 19:10:00,56.7,54.1,29.64,South,178,6.0,6.0,91,0.00,,---,0.41,VWS V14.00,2013-03-10 01:10:00,
2013-03-09 19:14:00,58.6,56.0,29.61,South,170,3.0,4.0,91,0.12,,---,0.36,VWS V14.00,2013-03-10 01:14:00,
2013-03-09 19:15:00,56.5,53.9,29.66,South,180,4.0,9.0,91,0.00,,---,0.41,VWS V14.00,2013-03-10 01:15:00,
2013-03-09 19:19:00,58.4,55.8,29.62,SSE,163,5.0,9.0,91,0.14,,---,0.37,VWS V14.00,2013-03-10 01:19:00,
2013-03-09 19:20:00,56.3,53.7,29.66,South,184,3.0,7.0,91,0.00,,---,0.42,VWS V14.00,2013-03-10 01:20:00,
2013-03-09 19:24:00,58.3,55.7,29.62,SSE,157,4.0,7.0,91,0.07,,---,0.37,VWS V14.00,2013-03-10 01:24:00,
2013-03-09 19:25:00,56.2,53.6,29.66,South,184,2.0,5.0,91,0.00,,---,0.42,VWS V14.00,2013-03-10 01:25:00,
2013-03-09 19:29:00,58.0,55.4,29.63,South,177,9.0,10.0,91,0.04,,---,0.37,VWS V14.00,2013-03-10 01:29:00,
2013-03-09 19:30:00,56.1,53.5,29.65,South,184,1.0,4.0,91,0.00,,---,0.42,VWS V14.00,2013-03-10 01:30:00,
2013-03-09 19:34:00,57.8,55.2,29.64,South,174,6.0,9.0,91,0.04,,---,0.38,VWS V14.00,2013-03-10 01:34:00,
2013-03-09 19:35:00,55.9,53.3,29.63,South,180,2.0,4.0,91,0.04,,---,0.43,VWS V14.00,2013-03-10 01:35:00,
2013-03-09 19:39:00,57.5,54.9,29.64,South,182,9.0,9.0,91,0.12,,---,0.39,VWS V14.00,2013-03-10 01:39:00,
2013-03-09 19:40:00,55.7,53.1,29.63,South,180,2.0,4.0,91,0.04,,---,0.43,VWS V14.00,2013-03-10 01:40:00,
2013-03-09 19:44:00,57.4,54.8,29.64,South,176,5.0,7.0,91,0.08,,---,0.40,VWS V14.00,2013-03-10 01:44:00,
2013-03-09 19:45:00,55.6,53.0,29.63,South,180,1.0,4.0,91,0.04,,---,0.43,VWS V14.00,2013-03-10 01:45:00,
2013-03-09 19:49:00,57.2,54.6,29.63,South,176,5.0,5.0,91,0.16,,---,0.41,VWS V14.00,2013-03-10 01:49:00,
2013-03-09 19:50:00,55.4,52.8,29.62,South,180,5.0,6.0,91,0.00,,---,0.43,VWS V14.00,2013-03-10 01:50:00,
2013-03-09 19:54:00,57.1,54.5,29.63,South,178,3.0,4.0,91,0.08,,---,0.41,VWS V14.00,2013-03-10 01:54:00,
2013-03-09 19:55:00,55.4,53.1,29.63,SSE,165,6.0,7.0,92,0.00,,---,0.43,VWS V14.00,2013-03-10 01:55:00,
2013-03-09 19:59:00,57.0,54.4,29.63,South,178,2.0,4.0,91,0.05,,---,0.41,VWS V14.00,2013-03-10 01:59:00,
2013-03-09 20:00:00,55.3,53.0,29.63,SE,140,7.0,10.0,92,0.00,,---,0.43,VWS V14.00,2013-03-10 02:00:00,
2013-03-09 20:04:00,56.8,54.2,29.64,South,178,4.0,4.0,91,0.00,,---,0.41,VWS V14.00,2013-03-10 02:04:00,
2013-03-09 20:05:00,55.3,53.0,29.63,SE,126,9.0,10.0,92,0.00,,---,0.43,VWS V14.00,2013-03-10 02:05:00,
2013-03-09 20:09:00,56.7,54.1,29.64,South,178,5.0,6.0,91,0.00,,---,0.41,VWS V14.00,2013-03-10 02:09:00,
2013-03-09 20:10:00,55.4,53.1,29.63,SE,125,5.0,10.0,92,0.00,,---,0.43,VWS V14.00,2013-03-10 02:10:00,
2013-03-09 20:14:00,56.5,53.9,29.66,South,180,5.0,5.0,91,0.00,,---,0.41,VWS V14.00,2013-03-10 02:14:00,
2013-03-09 20:15:00,55.5,53.2,29.63,SE,125,6.0,9.0,92,0.00,,---,0.43,VWS V14.00,2013-03-10 02:15:00,
2013-03-09 20:19:00,56.3,53.7,29.66,South,184,3.0,3.0,91,0.00,,---,0.42,VWS V14.00,2013-03-10 02:19:00,
2013-03-09 20:20:00,55.5,53.2,29.63,SE,125,4.0,9.0,92,0.00,,---,0.43,VWS V14.00,2013-03-10 02:20:00,
2013-03-09 20:24:00,56.2,53.6,29.66,South,184,2.0,3.0,91,0.00,,---,0.42,VWS V14.00,2013-03-10 02:24:00,
2013-03-09 20:25:00,55.4,53.1,29.64,SE,125,4.0,7.0,92,0.00,,---,0.43,VWS V14.00,2013-03-10 02:25:00,
2013-03-09 20:29:00,56.1,53.5,29.65,South,184,0.0,2.0,91,0.00,,---,0.42,VWS V14.00,2013-03-10 02:29:00,
2013-03-09 20:30:00,55.4,53.1,29.64,SE,125,5.0,6.0,92,0.00,,---,0.43,VWS V14.00,2013-03-10 02:30:00,
2013-03-09 20:34:00,55.9,53.3,29.63,South,180,1.0,2.0,91,0.04,,---,0.43,VWS V14.00,2013-03-10 02:34:00,
2013-03-09 20:35:00,55.3,53.0,29.64,SE,125,6.0,7.0,92,0.00,,---,0.43,VWS V14.00,2013-03-10 02:35:00,
2013-03-09 20:39:00,55.7,53.1,29.63,South,180,4.0,4.0,91,0.04,,---,0.43,VWS V14.00,2013-03-10 02:39:00,
2013-03-09 20:40:00,55.2,52.9,29.64,SE,125,5.0,8.0,92,0.00,,---,0.43,VWS V14.00,2013-03-10 02:40:00,
2013-03-09 20:44:00,55.5,52.9,29.63,South,180,3.0,3.0,91,0.04,,---,0.43,VWS V14.00,2013-03-10 02:44:00,
2013-03-09 20:45:00,55.1,52.8,29.65,SE,128,5.0,8.0,92,0.00,,---,0.43,VWS V14.00,2013-03-10 02:45:00,
2013-03-09 20:49:00,55.4,52.8,29.62,South,178,6.0,6.0,91,0.00,,---,0.43,VWS V14.00,2013-03-10 02:49:00,
2013-03-09 20:50:00,55.1,52.8,29.64,SE,129,6.0,11.0,92,0.00,,---,0.43,VWS V14.00,2013-03-10 02:50:00,
2013-03-09 20:54:00,55.4,53.1,29.63,SSE,162,7.0,7.0,92,0.00,,---,0.43,VWS V14.00,2013-03-10 02:54:00,
2013-03-09 20:55:00,55.1,52.8,29.64,SE,131,6.0,11.0,92,0.00,,---,0.43,VWS V14.00,2013-03-10 02:55:00,
2013-03-09 20:59:00,55.3,53.0,29.63,SE,136,9.0,9.0,92,0.00,,---,0.43,VWS V14.00,2013-03-10 02:59:00,
2013-03-09 21:00:00,55.1,52.8,29.64,SE,132,6.0,10.0,92,0.00,,---,0.43,VWS V14.00,2013-03-10 03:00:00,
2013-03-09 21:04:00,55.3,53.0,29.63,SE,126,7.0,10.0,92,0.00,,---,0.43,VWS V14.00,2013-03-10 03:04:00,
2013-03-09 21:05:00,55.1,52.8,29.64,SE,135,7.0,13.0,92,0.00,,---,0.43,VWS V14.00,2013-03-10 03:05:00,
2013-03-09 21:09:00,55.4,53.1,29.63,SE,125,7.0,8.0,92,0.00,,---,0.43,VWS V14.00,2013-03-10 03:09:00,
2013-03-09 21:10:00,55.1,52.8,29.64,SE,134,7.0,10.0,92,0.00,,---,0.43,VWS V14.00,2013-03-10 03:10:00,
2013-03-09 21:14:00,55.5,53.2,29.63,SE,125,5.0,6.0,92,0.00,,---,0.43,VWS V14.00,2013-03-10 03:14:00,
2013-03-09 21:15:00,55.1,52.8,29.65,SE,138,8.0,11.0,92,0.00,,---,0.43,VWS V14.00,2013-03-10 03:15:00,
2013-03-09 21:19:00,55.5,53.2,29.63,SE,125,6.0,6.0,92,0.00,,---,0.43,VWS V14.00,2013-03-10 03:19:00,
2013-03-09 21:24:00,55.4,53.1,29.64,SE,125,4.0,4.0,92,0.00,,---,0.43,VWS V14.00,2013-03-10 03:24:00,
2013-03-09 21:25:00,55.1,53.1,29.65,SE,136,6.0,11.0,93,0.00,,---,0.43,VWS V14.00,2013-03-10 03:25:00,
2013-03-09 21:29:00,55.4,53.1,29.64,SE,125,5.0,6.0,92,0.00,,---,0.43,VWS V14.00,2013-03-10 03:29:00,
2013-03-09 21:30:00,55.1,53.1,29.65,SE,134,6.0,10.0,93,0.00,,---,0.43,VWS V14.00,2013-03-10 03:30:00,
2013-03-09 21:34:00,55.3,53.0,29.64,SE,125,6.0,6.0,92,0.00,,---,0.43,VWS V14.00,2013-03-10 03:34:00,
2013-03-09 21:35:00,55.1,53.1,29.63,SE,134,4.0,10.0,93,0.00,,---,0.43,VWS V14.00,2013-03-10 03:35:00,
2013-03-09 21:39:00,55.2,52.9,29.64,SE,125,5.0,6.0,92,0.00,,---,0.43,VWS V14.00,2013-03-10 03:39:00,
2013-03-09 21:40:00,55.0,53.0,29.62,SE,134,6.0,7.0,93,0.00,,---,0.43,VWS V14.00,2013-03-10 03:40:00,
2013-03-09 21:44:00,55.1,52.8,29.65,SE,128,6.0,6.0,92,0.00,,---,0.43,VWS V14.00,2013-03-10 03:44:00,
2013-03-09 21:45:00,54.9,52.6,29.62,SE,129,7.0,11.0,92,0.00,,---,0.43,VWS V14.00,2013-03-10 03:45:00,
2013-03-09 21:49:00,55.1,52.8,29.64,SE,129,9.0,9.0,92,0.00,,---,0.43,VWS V14.00,2013-03-10 03:49:00,
2013-03-09 21:50:00,54.8,52.5,29.63,SE,134,4.0,11.0,92,0.00,,---,0.43,VWS V14.00,2013-03-10 03:50:00,
2013-03-09 21:54:00,55.1,52.8,29.63,SE,130,6.0,7.0,92,0.00,,---,0.43,VWS V14.00,2013-03-10 03:54:00,
2013-03-09 21:55:00,54.8,52.5,29.64,SE,136,10.0,11.0,92,0.00,,---,0.43,VWS V14.00,2013-03-10 03:55:00,
2013-03-09 21:59:00,55.1,52.8,29.64,SE,132,7.0,7.0,92,0.00,,---,0.43,VWS V14.00,2013-03-10 03:59:00,
2013-03-09 22:00:00,54.8,52.8,29.65,SE,139,9.0,13.0,93,0.00,,---,0.43,VWS V14.00,2013-03-10 04:00:00,
2013-03-09 22:04:00,55.1,52.8,29.64,SE,135,7.0,8.0,92,0.00,,---,0.43,VWS V14.00,2013-03-10 04:04:00,
2013-03-09 22:05:00,54.8,52.8,29.67,SSE,150,13.0,15.0,93,0.00,,---,0.43,VWS V14.00,2013-03-10 04:05:00,
2013-03-09 22:09:00,55.1,52.8,29.64,SE,134,7.0,8.0,92,0.00,,---,0.43,VWS V14.00,2013-03-10 04:09:00,
2013-03-09 22:10:00,54.8,52.8,29.66,SE,138,4.0,14.0,93,0.00,,---,0.43,VWS V14.00,2013-03-10 04:10:00,
2013-03-09 22:14:00,55.1,52.8,29.65,SE,138,4.0,8.0,92,0.00,,---,0.43,VWS V14.00,2013-03-10 04:14:00,
2013-03-09 22:15:00,54.8,52.8,29.65,SE,132,7.0,14.0,93,0.00,,---,0.43,VWS V14.00,2013-03-10 04:15:00,
2013-03-09 22:19:00,55.1,53.1,29.65,SE,140,5.0,6.0,93,0.00,,---,0.43,VWS V14.00,2013-03-10 04:19:00,
2013-03-09 22:20:00,54.8,52.5,29.65,SE,144,6.0,10.0,92,0.00,,---,0.43,VWS V14.00,2013-03-10 04:20:00,
2013-03-09 22:24:00,55.1,53.1,29.65,SE,136,7.0,7.0,93,0.00,,---,0.43,VWS V14.00,2013-03-10 04:24:00,
2013-03-09 22:25:00,54.7,52.4,29.66,SSE,157,5.0,9.0,92,0.00,,---,0.43,VWS V14.00,2013-03-10 04:25:00,
2013-03-09 22:29:00,55.1,53.1,29.65,SE,134,7.0,10.0,93,0.00,,---,0.43,VWS V14.00,2013-03-10 04:29:00,
2013-03-09 22:30:00,54.7,52.4,29.64,SSE,157,5.0,8.0,92,0.00,,---,0.43,VWS V14.00,2013-03-10 04:30:00,
2013-03-09 22:34:00,55.1,53.1,29.63,SE,134,3.0,4.0,93,0.00,,---,0.43,VWS V14.00,2013-03-10 04:34:00,
2013-03-09 22:35:00,54.6,52.3,29.64,SSE,156,4.0,9.0,92,0.00,,---,0.43,VWS V14.00,2013-03-10 04:35:00,
2013-03-09 22:39:00,55.0,53.0,29.62,SE,132,6.0,10.0,93,0.00,,---,0.43,VWS V14.00,2013-03-10 04:39:00,
2013-03-09 22:40:00,54.6,52.6,29.63,SSE,156,3.0,8.0,93,0.00,,---,0.43,VWS V14.00,2013-03-10 04:40:00,
2013-03-09 22:44:00,54.9,52.6,29.62,SE,131,11.0,11.0,92,0.00,,---,0.43,VWS V14.00,2013-03-10 04:44:00,
2013-03-09 22:45:00,54.5,52.2,29.63,SSE,156,5.0,9.0,92,0.00,,---,0.43,VWS V14.00,2013-03-10 04:45:00,
2013-03-09 22:49:00,54.8,52.5,29.63,SE,135,6.0,9.0,92,0.00,,---,0.43,VWS V14.00,2013-03-10 04:49:00,
2013-03-09 22:50:00,54.4,52.1,29.63,SSE,156,5.0,7.0,92,0.00,,---,0.43,VWS V14.00,2013-03-10 04:50:00,
2013-03-09 22:54:00,54.8,52.5,29.64,SE,135,9.0,11.0,92,0.00,,---,0.43,VWS V14.00,2013-03-10 04:54:00,
2013-03-09 22:55:00,54.3,52.0,29.64,SSE,156,3.0,6.0,92,0.00,,---,0.43,VWS V14.00,2013-03-10 04:55:00,
2013-03-09 22:59:00,54.8,52.8,29.65,SSE,148,7.0,12.0,93,0.00,,---,0.43,VWS V14.00,2013-03-10 04:59:00,
2013-03-09 23:00:00,54.8,52.8,29.65,SSE,150,9.0,12.0,93,0.00,,---,0.43,VWS V14.00,2013-03-10 05:00:00,
2013-03-09 23:05:00,54.8,52.8,29.67,SSE,156,11.0,14.0,93,0.00,,---,0.43,VWS V14.00,2013-03-10 05:05:00,
2013-03-09 23:10:00,54.8,52.8,29.65,SE,139,7.0,11.0,93,0.00,,---,0.43,VWS V14.00,2013-03-10 05:10:00,
2013-03-09 23:15:00,54.8,52.8,29.65,SE,146,5.0,10.0,93,0.00,,---,0.43,VWS V14.00,2013-03-10 05:15:00,
2013-03-09 23:20:00,54.8,52.5,29.65,SE,146,7.0,7.0,92,0.00,,---,0.43,VWS V14.00,2013-03-10 05:20:00,
2013-03-09 23:25:00,54.7,52.4,29.65,SSE,157,6.0,8.0,92,0.00,,---,0.43,VWS V14.00,2013-03-10 05:25:00,
2013-03-09 23:30:00,54.7,52.4,29.64,SSE,157,4.0,6.0,92,0.00,,---,0.43,VWS V14.00,2013-03-10 05:30:00,
2013-03-09 23:35:00,54.6,52.3,29.64,SSE,156,5.0,8.0,92,0.00,,---,0.43,VWS V14.00,2013-03-10 05:35:00,
2013-03-09 23:40:00,54.6,52.6,29.63,SSE,156,5.0,7.0,93,0.00,,---,0.43,VWS V14.00,2013-03-10 05:40:00,
2013-03-09 23:45:00,54.5,52.2,29.63,SSE,156,5.0,6.0,92,0.00,,---,0.43,VWS V14.00,2013-03-10 05:45:00,
2013-03-09 23:50:00,54.4,52.1,29.63,SSE,156,4.0,5.0,92,0.00,,---,0.43,VWS V14.00,2013-03-10 05:50:00,
2013-03-09 23:55:00,54.3,52.0,29.64,SSE,156,2.0,5.0,92,0.00,,---,0.43,VWS V14.00,2013-03-10 05:55:00,